Time;durP1;ratioP1;P1;durP2;ratioP2;P2;SDS_P1;SDS_P2;PMS_P1;PMS_P2;Temp;Humidity;BMP_temperature;BMP_pressure;BME280_temperature;BME280_humidity;BME280_pressure;Samples;Min_cycle;Max_cycle;Signal;HPM_P1;HPM_P2
2023/09/13 00:02:19;;;;;;;2.25;1.10;;;22.70;63.10;;;;;;5069048;28;20215;-62
2023/09/13 00:04:47;;;;;;;3.00;1.20;;;22.70;63.90;;;;;;5066818;28;20187;-63
2023/09/13 00:07:32;;;;;;;2.67;1.20;;;22.70;63.10;;;;;;5068281;28;20230;-61
2023/09/13 00:10:12;;;;;;;3.05;1.10;;;22.60;63.00;;;;;;5075075;28;20226;-61
2023/09/13 00:12:40;;;;;;;3.35;1.20;;;22.70;63.10;;;;;;5068434;28;20312;-60
2023/09/13 00:15:09;;;;;;;1.75;0.85;;;22.70;63.10;;;;;;5062534;28;20249;-58
2023/09/13 00:17:52;;;;;;;1.73;1.17;;;22.60;63.00;;;;;;5065634;28;20223;-61
2023/09/13 00:20:20;;;;;;;1.98;1.13;;;22.70;63.10;;;;;;5066559;28;20205;-62
2023/09/13 00:22:47;;;;;;;3.35;1.30;;;22.60;63.00;;;;;;5068341;28;20313;-61
2023/09/13 00:25:14;;;;;;;1.90;1.10;;;22.60;63.00;;;;;;5069254;28;20203;-61
2023/09/13 00:27:42;;;;;;;3.75;1.25;;;22.70;63.10;;;;;;5072163;28;20249;-60
2023/09/13 00:30:11;;;;;;;2.50;1.05;;;22.60;63.00;;;;;;5072374;28;20211;-61
2023/09/13 00:32:38;;;;;;;1.80;1.02;;;22.70;63.10;;;;;;5070830;28;20215;-60
2023/09/13 00:35:07;;;;;;;2.72;1.20;;;22.70;63.10;;;;;;5072272;28;20178;-61
2023/09/13 00:37:56;;;;;;;2.28;0.93;;;22.70;63.10;;;;;;5072187;28;20300;-60
2023/09/13 00:40:24;;;;;;;3.70;1.10;;;22.70;63.10;;;;;;5064759;28;20278;-59
2023/09/13 00:42:51;;;;;;;2.97;1.20;;;22.70;63.10;;;;;;5066980;28;20265;-59
2023/09/13 00:45:18;;;;;;;2.08;1.13;;;22.60;63.00;;;;;;5071675;28;20191;-58
2023/09/13 00:47:47;;;;;;;3.83;1.17;;;22.70;63.10;;;;;;5069925;28;20218;-57
2023/09/13 00:50:17;;;;;;;1.95;1.10;;;22.70;63.10;;;;;;5072286;28;20222;-60
2023/09/13 00:52:47;;;;;;;3.50;1.20;;;22.60;63.00;;;;;;5071922;28;20210;-57
2023/09/13 00:55:18;;;;;;;2.90;1.00;;;22.60;63.00;;;;;;5071941;28;20229;-60
2023/09/13 00:57:47;;;;;;;2.05;1.17;;;22.60;63.00;;;;;;5070666;28;20215;-59
2023/09/13 01:00:16;;;;;;;2.13;1.40;;;22.60;63.00;;;;;;5071767;28;20190;-61
2023/09/13 01:02:44;;;;;;;3.05;1.48;;;22.60;63.00;;;;;;5070734;28;20219;-61
2023/09/13 01:05:14;;;;;;;1.98;1.23;;;22.60;63.00;;;;;;5070950;28;20260;-61
2023/09/13 01:07:45;;;;;;;3.97;1.45;;;22.60;63.00;;;;;;5070139;28;20221;-59
2023/09/13 01:10:13;;;;;;;4.60;1.13;;;22.60;63.00;;;;;;5071337;28;20219;-59
2023/09/13 01:12:40;;;;;;;2.17;1.20;;;22.70;63.10;;;;;;5071221;28;20218;-61
2023/09/13 01:15:09;;;;;;;3.50;1.30;;;22.70;63.10;;;;;;5070269;28;20189;-61
2023/09/13 01:17:44;;;;;;;2.53;1.40;;;22.60;63.00;;;;;;5069911;28;20306;-60
2023/09/13 01:20:17;;;;;;;3.22;1.40;;;22.60;63.00;;;;;;5071322;28;20309;-60
2023/09/13 01:23:40;;;;;;;3.00;1.30;;;22.60;63.00;;;;;;5071159;28;20238;-61
2023/09/13 01:26:33;;;;;;;3.88;1.40;;;22.60;63.00;;;;;;4984407;28;20202;-62
2023/09/13 01:29:03;;;;;;;2.55;1.30;;;22.60;63.10;;;;;;5011186;28;20284;-57
2023/09/13 01:31:31;;;;;;;1.75;1.20;;;22.60;63.10;;;;;;4993982;28;20190;-59
2023/09/13 01:33:59;;;;;;;3.40;1.20;;;22.60;63.10;;;;;;4991907;28;20225;-59
2023/09/13 01:36:28;;;;;;;1.30;1.20;;;22.60;63.20;;;;;;4991581;28;20206;-63
2023/09/13 01:38:55;;;;;;;3.03;1.40;;;22.60;63.20;;;;;;4990444;28;20224;-60
2023/09/13 01:41:26;;;;;;;2.28;1.45;;;22.60;63.20;;;;;;4991789;28;20285;-61
2023/09/13 01:43:55;;;;;;;2.45;1.10;;;22.70;63.40;;;;;;4991116;28;20226;-60
2023/09/13 01:46:27;;;;;;;3.35;1.20;;;22.70;63.40;;;;;;4989329;28;20191;-61
2023/09/13 01:48:56;;;;;;;1.35;1.00;;;22.60;63.30;;;;;;4991536;28;20225;-62
2023/09/13 01:51:24;;;;;;;2.95;1.50;;;22.70;63.50;;;;;;4989530;28;20186;-61
2023/09/13 01:53:51;;;;;;;1.77;1.25;;;22.60;63.30;;;;;;4972045;28;20306;-60
2023/09/13 01:56:21;;;;;;;2.53;1.45;;;22.60;63.40;;;;;;4984941;28;20204;-60
2023/09/13 01:58:48;;;;;;;2.35;1.40;;;22.60;63.40;;;;;;4991481;28;20214;-61
2023/09/13 02:01:16;;;;;;;2.83;1.42;;;22.60;63.40;;;;;;4997852;28;20257;-60
2023/09/13 02:03:45;;;;;;;2.50;1.15;;;22.60;63.40;;;;;;5065635;28;20221;-61
2023/09/13 02:12:59;;;;;;;2.17;1.20;;;22.60;63.50;;;;;;5059839;28;20307;-58
2023/09/13 02:15:27;;;;;;;2.40;1.30;;;22.60;63.60;;;;;;5068258;28;20195;-58
2023/09/13 02:17:55;;;;;;;2.70;1.48;;;22.60;63.60;;;;;;5068611;28;20226;-62
2023/09/13 02:20:24;;;;;;;1.40;1.20;;;22.60;63.60;;;;;;5069980;28;20270;-61
2023/09/13 02:22:51;;;;;;;2.17;1.60;;;22.60;63.60;;;;;;5068241;28;20238;-62
2023/09/13 02:25:19;;;;;;;1.70;1.30;;;22.70;63.70;;;;;;5070204;28;20286;-62
2023/09/13 02:27:46;;;;;;;1.58;1.38;;;22.60;63.60;;;;;;5068573;28;20218;-60
2023/09/13 02:30:14;;;;;;;3.33;1.55;;;22.60;63.60;;;;;;5069235;28;20302;-62
2023/09/13 02:32:42;;;;;;;1.77;1.17;;;22.50;63.50;;;;;;5069998;28;20229;-62
2023/09/13 02:35:11;;;;;;;2.47;1.60;;;22.60;63.70;;;;;;5068229;28;20237;-61
2023/09/13 02:37:40;;;;;;;3.28;1.50;;;22.60;63.60;;;;;;5070039;28;20218;-60
2023/09/13 02:40:10;;;;;;;2.80;1.60;;;22.50;63.60;;;;;;5070006;28;20187;-62
2023/09/13 02:42:50;;;;;;;1.75;1.38;;;22.60;63.70;;;;;;5069690;28;20222;-60
2023/09/13 02:48:57;;;;;;;2.15;1.58;;;22.60;63.70;;;;;;5069438;28;20229;-62
2023/09/13 02:51:24;;;;;;;2.33;1.60;;;22.50;63.60;;;;;;5069647;28;20245;-63
2023/09/13 02:53:54;;;;;;;5.63;1.35;;;22.50;63.60;;;;;;5049603;28;20216;-60
2023/09/13 02:56:21;;;;;;;2.55;1.40;;;22.60;63.70;;;;;;5061429;28;20199;-62
2023/09/13 02:58:49;;;;;;;2.22;1.52;;;22.50;63.60;;;;;;5069958;28;20214;-58
2023/09/13 03:01:16;;;;;;;1.92;1.55;;;22.50;63.60;;;;;;5066658;28;20191;-61
2023/09/13 03:03:44;;;;;;;2.53;1.40;;;22.60;63.70;;;;;;5069062;28;20211;-57
2023/09/13 03:06:13;;;;;;;2.80;1.55;;;22.60;63.70;;;;;;5067569;28;20198;-60
2023/09/13 03:08:41;;;;;;;2.38;1.60;;;22.60;63.70;;;;;;5069416;28;20222;-60
2023/09/13 03:11:16;;;;;;;3.67;1.80;;;22.50;63.60;;;;;;5067650;28;20289;-62
2023/09/13 03:13:44;;;;;;;2.15;1.52;;;22.50;63.60;;;;;;5069320;28;20220;-59
2023/09/13 03:16:13;;;;;;;2.05;1.50;;;22.50;63.60;;;;;;5069374;28;20270;-61
2023/09/13 03:18:41;;;;;;;2.55;1.55;;;22.60;63.60;;;;;;5069627;28;20215;-59
2023/09/13 03:21:09;;;;;;;3.75;1.60;;;22.60;63.60;;;;;;5067749;28;20199;-60
2023/09/13 03:23:38;;;;;;;2.80;1.30;;;22.50;63.50;;;;;;5068646;28;20257;-58
2023/09/13 03:26:13;;;;;;;1.48;1.27;;;22.50;63.60;;;;;;5067216;28;20337;-60
2023/09/13 03:28:43;;;;;;;2.97;1.55;;;22.50;63.60;;;;;;5069197;28;20210;-61
2023/09/13 03:31:10;;;;;;;3.38;1.95;;;22.50;63.50;;;;;;5069298;28;20207;-62
2023/09/13 03:33:39;;;;;;;1.98;1.60;;;22.50;63.50;;;;;;5068983;28;20877;-56
2023/09/13 03:36:07;;;;;;;2.25;1.10;;;22.50;63.50;;;;;;5069236;28;20183;-61
2023/09/13 03:38:34;;;;;;;1.77;1.30;;;22.50;63.60;;;;;;5069386;28;20217;-60
2023/09/13 03:41:03;;;;;;;1.30;1.20;;;22.50;63.50;;;;;;5067379;28;20191;-58
2023/09/13 03:43:31;;;;;;;1.92;1.10;;;22.50;63.50;;;;;;5068724;28;20755;-59
2023/09/13 03:46:00;;;;;;;2.38;1.35;;;22.50;63.50;;;;;;5068992;28;20202;-62
2023/09/13 03:48:30;;;;;;;1.92;1.15;;;22.50;63.50;;;;;;5066979;28;20223;-61
2023/09/13 03:50:57;;;;;;;1.80;1.10;;;22.50;63.50;;;;;;5069159;28;20206;-61
2023/09/13 03:53:25;;;;;;;2.58;1.38;;;22.50;63.50;;;;;;5068968;28;20214;-61
2023/09/13 03:55:52;;;;;;;1.50;1.20;;;22.50;63.50;;;;;;5068655;28;20223;-62
2023/09/13 03:58:20;;;;;;;1.25;1.10;;;22.50;63.50;;;;;;5069063;28;20250;-60
2023/09/13 04:00:47;;;;;;;2.70;1.38;;;22.50;63.50;;;;;;5071997;28;20183;-59
2023/09/13 04:03:17;;;;;;;3.60;1.25;;;22.50;63.50;;;;;;5072380;28;20210;-58
2023/09/13 04:05:45;;;;;;;1.95;1.27;;;22.50;63.50;;;;;;5072594;28;20289;-58
2023/09/13 04:08:32;;;;;;;;;;;;;;;;;;;;;
2023/09/13 04:11:01;;;;;;;1.88;1.20;;;22.50;63.40;;;;;;5025466;28;20229;-60
2023/09/13 04:13:31;;;;;;;1.45;0.98;;;22.50;63.50;;;;;;5070772;28;20302;-62
2023/09/13 04:16:02;;;;;;;1.20;0.90;;;22.40;63.30;;;;;;5072762;28;20269;-61
2023/09/13 04:21:28;;;;;;;2.08;1.05;;;22.50;63.40;;;;;;4987928;28;20237;-61
2023/09/13 04:23:58;;;;;;;2.95;0.95;;;22.50;63.40;;;;;;5071898;28;20238;-61
2023/09/13 04:26:25;;;;;;;1.27;1.15;;;22.50;63.40;;;;;;5072175;28;20278;-62
2023/09/13 04:28:53;;;;;;;1.25;1.00;;;22.50;63.40;;;;;;5072397;28;20214;-60
2023/09/13 04:31:20;;;;;;;1.73;1.13;;;22.50;63.40;;;;;;5072179;28;20222;-63
2023/09/13 04:33:53;;;;;;;1.52;1.10;;;22.50;63.40;;;;;;5071927;28;20227;-58
2023/09/13 04:36:21;;;;;;;0.90;0.80;;;22.50;63.40;;;;;;5070548;28;20187;-61
2023/09/13 04:38:49;;;;;;;1.55;0.82;;;22.50;63.30;;;;;;5072441;28;20217;-60
2023/09/13 04:41:17;;;;;;;1.50;1.10;;;22.50;63.40;;;;;;5072009;28;20274;-59
2023/09/13 04:43:45;;;;;;;1.05;0.95;;;22.50;63.40;;;;;;5070020;28;20290;-60
2023/09/13 04:46:12;;;;;;;1.30;1.00;;;22.50;63.30;;;;;;5071886;28;20222;-60
2023/09/13 04:48:39;;;;;;;2.97;1.08;;;22.50;63.30;;;;;;5071944;28;20306;-60
2023/09/13 04:51:11;;;;;;;2.55;1.05;;;22.50;63.30;;;;;;5071892;28;20207;-59
2023/09/13 04:53:39;;;;;;;1.40;0.85;;;22.50;63.20;;;;;;5070628;28;20305;-58
2023/09/13 04:56:06;;;;;;;2.88;1.00;;;22.50;63.30;;;;;;5071758;28;20191;-62
2023/09/13 04:58:34;;;;;;;1.08;0.95;;;22.50;63.20;;;;;;5072184;28;20218;-59
2023/09/13 05:01:01;;;;;;;1.15;0.80;;;22.40;63.10;;;;;;5071776;28;20187;-62
2023/09/13 05:03:28;;;;;;;1.55;0.90;;;22.40;63.10;;;;;;5071084;28;20218;-58
2023/09/13 05:05:56;;;;;;;2.47;1.05;;;22.40;63.10;;;;;;5071549;28;20195;-63
2023/09/13 05:08:31;;;;;;;1.23;0.80;;;22.50;63.20;;;;;;5069849;28;20287;-60
2023/09/13 05:10:58;;;;;;;0.85;0.75;;;22.40;63.90;;;;;;5070914;28;20214;-62
2023/09/13 05:13:26;;;;;;;1.70;0.77;;;22.40;63.10;;;;;;5071560;28;20215;-59
2023/09/13 05:15:53;;;;;;;1.55;0.82;;;22.40;63.10;;;;;;5071798;28;20187;-58
2023/09/13 05:18:20;;;;;;;1.77;1.05;;;22.40;63.10;;;;;;5071551;28;20218;-61
2023/09/13 05:23:31;;;;;;;1.65;0.98;;;22.40;63.10;;;;;;5068853;28;20241;-62
2023/09/13 05:26:05;;;;;;;1.67;0.80;;;22.40;63.10;;;;;;5071399;28;20191;-62
2023/09/13 05:28:33;;;;;;;1.50;0.90;;;22.40;63.10;;;;;;5071496;28;20222;-60
2023/09/13 05:31:01;;;;;;;1.23;0.75;;;22.40;63.10;;;;;;5071432;28;20211;-61
2023/09/13 05:33:28;;;;;;;1.33;0.77;;;22.40;63.10;;;;;;5071017;28;20301;-59
2023/09/13 05:35:58;;;;;;;0.85;0.80;;;22.40;63.10;;;;;;5069654;28;20190;-61
2023/09/13 05:38:26;;;;;;;2.03;0.75;;;22.40;63.10;;;;;;5071554;28;20249;-56
2023/09/13 05:40:55;;;;;;;2.42;0.77;;;22.40;63.90;;;;;;5071001;28;20195;-62
2023/09/13 05:43:22;;;;;;;3.33;1.08;;;22.40;63.10;;;;;;5069441;28;20226;-61
2023/09/13 05:45:50;;;;;;;1.35;0.90;;;22.50;63.20;;;;;;5071070;28;20240;-61
2023/09/13 05:48:17;;;;;;;3.83;0.80;;;22.40;63.10;;;;;;5071024;28;20219;-58
2023/09/13 05:50:45;;;;;;;2.63;0.90;;;22.40;63.10;;;;;;5066589;28;20207;-60
2023/09/13 05:53:13;;;;;;;1.50;0.93;;;22.40;63.10;;;;;;5067271;28;20223;-60
2023/09/13 05:55:41;;;;;;;1.27;0.80;;;22.40;63.10;;;;;;5069799;28;20320;-61
2023/09/13 05:58:10;;;;;;;1.75;1.00;;;22.40;63.10;;;;;;5068561;28;20215;-58
2023/09/13 06:00:37;;;;;;;1.35;0.73;;;22.40;63.10;;;;;;5068870;28;20572;-59
2023/09/13 06:03:05;;;;;;;1.42;0.70;;;22.40;63.10;;;;;;5070693;28;20684;-62
2023/09/13 06:05:32;;;;;;;1.45;0.80;;;22.40;63.10;;;;;;5070447;28;20297;-62
2023/09/13 06:08:00;;;;;;;1.35;0.90;;;22.40;63.10;;;;;;5069047;28;20280;-58
2023/09/13 06:10:27;;;;;;;1.17;0.82;;;22.40;63.10;;;;;;5070227;28;20195;-58
2023/09/13 06:12:54;;;;;;;1.25;0.82;;;22.40;63.10;;;;;;5070643;28;20187;-57
2023/09/13 06:15:23;;;;;;;1.70;0.90;;;22.40;63.10;;;;;;5069397;28;20194;-54
2023/09/13 06:17:51;;;;;;;1.15;0.80;;;22.40;63.10;;;;;;5070039;28;20218;-56
2023/09/13 06:20:19;;;;;;;2.05;0.80;;;22.40;63.00;;;;;;5069869;28;20187;-58
2023/09/13 06:22:47;;;;;;;1.77;0.82;;;22.40;63.00;;;;;;5069469;28;20293;-56
2023/09/13 06:25:17;;;;;;;1.40;0.90;;;22.50;63.00;;;;;;5069496;28;20199;-57
2023/09/13 06:27:44;;;;;;;2.03;1.10;;;22.50;63.00;;;;;;5069986;28;20209;-56
2023/09/13 06:33:08;;;;;;;1.17;0.80;;;22.50;63.00;;;;;;5067285;28;20194;-57
2023/09/13 06:35:37;;;;;;;2.80;0.98;;;22.50;63.00;;;;;;5067515;28;20256;-56
2023/09/13 06:38:05;;;;;;;2.95;1.00;;;22.50;62.90;;;;;;5069482;28;20306;-57
2023/09/13 06:40:35;;;;;;;1.45;1.00;;;22.50;63.00;;;;;;5067793;28;20234;-57
2023/09/13 06:43:03;;;;;;;1.27;0.70;;;22.50;62.90;;;;;;5068370;28;20787;-57
2023/09/13 06:45:31;;;;;;;6.85;1.20;;;22.50;62.90;;;;;;5066586;28;20178;-57
2023/09/13 06:48:00;;;;;;;1.30;1.20;;;22.50;62.90;;;;;;5068151;28;20213;-57
2023/09/13 06:50:30;;;;;;;0.90;0.80;;;22.50;62.90;;;;;;5069905;28;20201;-57
2023/09/13 06:53:01;;;;;;;4.82;1.27;;;22.50;62.90;;;;;;5066315;28;20844;-58
2023/09/13 06:55:31;;;;;;;2.33;1.10;;;22.60;63.00;;;;;;5063990;28;20191;-56
2023/09/13 06:58:05;;;;;;;3.42;1.20;;;22.60;63.00;;;;;;5053128;28;20198;-59
2023/09/13 07:00:33;;;;;;;1.67;1.10;;;22.60;63.00;;;;;;5059808;28;20272;-62
2023/09/13 07:03:13;;;;;;;2.47;1.30;;;22.60;63.00;;;;;;5061003;28;20191;-59
2023/09/13 07:05:42;;;;;;;7.15;1.27;;;22.70;63.10;;;;;;5060050;28;20257;-60
2023/09/13 07:08:13;;;;;;;2.90;1.23;;;22.70;63.10;;;;;;5054043;28;20222;-59
2023/09/13 07:10:54;;;;;;;1.55;1.00;;;22.70;63.10;;;;;;5056406;28;20306;-58
2023/09/13 07:13:26;;;;;;;6.15;0.85;;;22.70;63.10;;;;;;5051400;28;20226;-58
2023/09/13 07:15:55;;;;;;;9.00;1.77;;;22.70;63.00;;;;;;5060498;28;20229;-57
2023/09/13 07:18:26;;;;;;;2.30;0.98;;;22.70;63.00;;;;;;5063255;28;20223;-59
2023/09/13 07:21:12;;;;;;;7.65;1.00;;;22.70;63.00;;;;;;5064783;28;20262;-59
2023/09/13 07:23:41;;;;;;;4.70;1.00;;;22.80;63.10;;;;;;5062012;28;20242;-57
2023/09/13 07:29:13;;;;;;;2.78;0.98;;;22.70;63.00;;;;;;5058047;28;20303;-56
2023/09/13 07:31:43;;;;;;;2.53;1.08;;;22.80;63.20;;;;;;5062023;28;20718;-59
2023/09/13 07:34:22;;;;;;;4.95;0.98;;;22.80;63.20;;;;;;5063178;28;20226;-58
2023/09/13 07:36:50;;;;;;;3.55;0.90;;;22.80;63.20;;;;;;5065696;28;20222;-57
2023/09/13 07:39:19;;;;;;;4.63;1.15;;;23.00;63.40;;;;;;5055586;28;20222;-58
2023/09/13 07:45:13;;;;;;;7.13;1.35;;;23.00;63.40;;;;;;5063053;28;20695;-58
2023/09/13 07:50:36;;;;;;;6.55;1.33;;;23.00;63.40;;;;;;5066353;28;20437;-56
2023/09/13 07:53:05;;;;;;;8.52;1.33;;;23.00;63.40;;;;;;5063853;28;20720;-55
2023/09/13 07:55:38;;;;;;;8.60;1.33;;;22.90;63.20;;;;;;5062663;28;20211;-57
2023/09/13 07:58:09;;;;;;;5.68;1.42;;;22.90;63.20;;;;;;5062319;28;20489;-57
2023/09/13 08:09:46;;;;;;;4.00;1.20;;;23.00;63.40;;;;;;5056902;28;20393;-59
2023/09/13 08:12:14;;;;;;;3.08;1.00;;;23.00;63.40;;;;;;5055461;28;20261;-60
2023/09/13 08:17:25;;;;;;;2.55;1.10;;;23.00;63.40;;;;;;5046489;28;20207;-58
2023/09/13 08:19:53;;;;;;;3.08;0.90;;;23.00;63.20;;;;;;5058426;28;20223;-59
2023/09/13 08:22:31;;;;;;;8.23;1.30;;;23.00;63.20;;;;;;5059373;28;20362;-58
2023/09/13 08:25:06;;;;;;;6.80;1.20;;;22.90;63.20;;;;;;5059450;28;20223;-57
2023/09/13 08:27:36;;;;;;;3.75;1.50;;;23.00;63.20;;;;;;5062235;28;20230;-52
2023/09/13 08:30:28;;;;;;;4.93;1.27;;;23.00;63.10;;;;;;5053720;28;20603;-56
2023/09/13 08:33:11;;;;;;;7.15;1.33;;;23.00;63.20;;;;;;5065505;28;20227;-58
2023/09/13 08:36:33;;;;;;;4.18;1.40;;;23.10;63.20;;;;;;5066601;28;20227;-58
2023/09/13 08:39:39;;;;;;;8.65;1.40;;;23.00;63.00;;;;;;5048421;28;20229;-58
2023/09/13 08:46:00;;;;;;;5.38;1.60;;;23.10;63.00;;;;;;4949158;28;20238;-59
2023/09/13 08:48:29;;;;;;;5.32;1.50;;;23.10;62.80;;;;;;5033855;28;20233;-55
2023/09/13 08:50:57;;;;;;;4.88;1.58;;;23.00;62.60;;;;;;5070099;28;20201;-60
2023/09/13 08:56:36;;;;;;;5.43;1.58;;;23.10;62.50;;;;;;4979474;28;20217;-61
2023/09/13 08:59:04;;;;;;;3.60;1.40;;;23.10;62.60;;;;;;5058483;28;20219;-57
2023/09/13 09:04:16;;;;;;;3.92;1.30;;;23.10;62.70;;;;;;5060495;28;20282;-57
2023/09/13 09:06:57;;;;;;;4.80;1.10;;;23.10;62.60;;;;;;5059107;28;20225;-59
2023/09/13 09:09:28;;;;;;;5.35;1.60;;;23.10;62.60;;;;;;5031054;28;20265;-56
2023/09/13 09:12:00;;;;;;;2.95;1.40;;;23.10;62.50;;;;;;5066749;28;20226;-57
2023/09/13 09:14:33;;;;;;;9.95;2.90;;;23.10;62.40;;;;;;5061774;28;20247;-59
2023/09/13 09:17:02;;;;;;;4.28;1.75;;;23.10;62.30;;;;;;5068132;28;20201;-59
2023/09/13 09:19:30;;;;;;;4.38;1.50;;;23.20;62.50;;;;;;5066077;28;20235;-57
2023/09/13 09:21:59;;;;;;;3.58;1.38;;;23.10;62.20;;;;;;5060466;28;20190;-59
2023/09/13 09:28:09;;;;;;;;;;;;;;;;;;;;;
2023/09/13 09:30:38;;;;;;;2.53;1.38;;;23.20;62.20;;;;;;4976526;28;20600;-59
2023/09/13 09:33:07;;;;;;;4.35;1.65;;;23.20;62.10;;;;;;4977280;28;20226;-56
2023/09/13 09:35:38;;;;;;;6.32;1.35;;;23.30;62.20;;;;;;4969805;28;20333;-58
2023/09/13 09:38:22;;;;;;;5.70;1.35;;;23.20;62.00;;;;;;4987919;28;20205;-59
2023/09/13 09:40:49;;;;;;;3.60;1.40;;;23.20;61.90;;;;;;4971045;28;20238;-58
2023/09/13 09:43:17;;;;;;;3.00;1.38;;;23.20;61.90;;;;;;4985661;28;20288;-57
2023/09/13 09:45:47;;;;;;;2.63;1.33;;;23.30;61.90;;;;;;4989773;28;20226;-58
2023/09/13 09:48:15;;;;;;;6.35;1.55;;;23.20;61.80;;;;;;4974080;28;20202;-57
2023/09/13 09:50:47;;;;;;;2.75;1.20;;;23.20;61.80;;;;;;4967761;28;20210;-56
2023/09/13 09:53:17;;;;;;;16.55;1.73;;;23.30;61.90;;;;;;4984655;28;20305;-57
2023/09/13 09:55:49;;;;;;;2.20;1.35;;;23.30;61.80;;;;;;4986428;28;20222;-58
2023/09/13 09:58:17;;;;;;;3.28;1.40;;;23.30;61.80;;;;;;4987681;28;20198;-58
2023/09/13 10:04:19;;;;;;;3.50;1.40;;;23.30;61.80;;;;;;4990090;28;20261;-59
2023/09/13 10:07:03;;;;;;;4.55;1.40;;;23.30;61.60;;;;;;5060984;28;20195;-59
2023/09/13 10:09:46;;;;;;;4.63;1.45;;;23.30;61.60;;;;;;5051767;28;20597;-59
2023/09/13 10:12:15;;;;;;;3.35;1.50;;;23.30;61.60;;;;;;5061543;28;20206;-55
2023/09/13 10:14:54;;;;;;;3.70;1.27;;;23.40;61.60;;;;;;5069714;28;20222;-57
2023/09/13 10:17:26;;;;;;;3.47;1.45;;;23.30;61.50;;;;;;5069583;28;20194;-56
2023/09/13 10:19:55;;;;;;;4.25;1.42;;;23.30;61.40;;;;;;5068213;28;20369;-58
2023/09/13 10:22:25;;;;;;;4.63;1.63;;;23.30;61.50;;;;;;5065898;28;20195;-58
2023/09/13 10:24:59;;;;;;;2.42;1.33;;;23.30;61.50;;;;;;5049436;28;20689;-59
2023/09/13 10:27:28;;;;;;;4.53;1.38;;;23.40;61.50;;;;;;5043770;28;20540;-58
2023/09/13 10:29:59;;;;;;;3.90;1.40;;;23.40;61.40;;;;;;5036441;28;20243;-58
2023/09/13 10:35:17;;;;;;;3.22;1.38;;;23.40;62.00;;;;;;5047903;28;20232;-60
2023/09/13 10:38:00;;;;;;;3.17;1.45;;;23.40;61.20;;;;;;5039447;28;20194;-59
2023/09/13 10:40:46;;;;;;;4.35;1.58;;;23.40;61.10;;;;;;5029279;28;20220;-59
2023/09/13 10:43:14;;;;;;;5.75;1.42;;;23.40;61.10;;;;;;5043055;28;20673;-59
2023/09/13 10:45:45;;;;;;;3.05;1.20;;;23.40;61.10;;;;;;5048930;28;20302;-58
2023/09/13 10:55:32;;;;;;;4.05;1.40;;;23.40;60.90;;;;;;5030130;28;20214;-57
2023/09/13 11:00:45;;;;;;;3.33;1.20;;;23.40;61.00;;;;;;5045900;28;20231;-56
2023/09/13 11:03:13;;;;;;;3.03;1.20;;;23.40;61.00;;;;;;5039058;28;20192;-59
2023/09/13 11:05:43;;;;;;;4.50;1.50;;;23.40;61.00;;;;;;5048811;28;20314;-58
2023/09/13 11:08:12;;;;;;;3.75;1.38;;;23.40;61.00;;;;;;5046206;28;20291;-58
2023/09/13 11:10:41;;;;;;;2.70;1.25;;;23.40;60.90;;;;;;5028925;28;20251;-58
2023/09/13 11:13:58;;;;;;;4.13;1.48;;;23.40;60.90;;;;;;5038635;28;20207;-57
2023/09/13 11:16:25;;;;;;;5.50;1.20;;;23.40;60.90;;;;;;5030373;28;20211;-58
2023/09/13 11:18:56;;;;;;;3.03;1.25;;;23.40;60.90;;;;;;5049076;28;20192;-58
2023/09/13 11:21:26;;;;;;;4.40;1.30;;;23.40;60.90;;;;;;5028966;28;20200;-56
2023/09/13 11:23:55;;;;;;;2.65;1.27;;;23.40;60.90;;;;;;5058875;28;20226;-59
2023/09/13 11:26:46;;;;;;;2.80;1.40;;;23.40;60.90;;;;;;5068606;28;20385;-58
2023/09/13 11:29:27;;;;;;;3.33;1.30;;;23.40;60.70;;;;;;5064694;28;20199;-58
2023/09/13 11:32:03;;;;;;;2.60;1.30;;;23.40;60.70;;;;;;5066933;28;20187;-59
2023/09/13 11:34:32;;;;;;;2.33;1.45;;;23.40;60.70;;;;;;5068475;28;20210;-58
2023/09/13 11:37:01;;;;;;;4.60;1.17;;;23.40;60.70;;;;;;5069012;28;20183;-57
2023/09/13 11:43:31;;;;;;;3.20;1.02;;;23.40;60.70;;;;;;4959349;28;20222;-58
2023/09/13 11:46:00;;;;;;;2.85;1.40;;;23.40;60.60;;;;;;4978478;28;20219;-59
2023/09/13 11:48:32;;;;;;;1.67;1.10;;;23.50;61.00;;;;;;5059365;28;20190;-59
2023/09/13 11:51:11;;;;;;;5.28;1.30;;;23.50;61.80;;;;;;5052091;28;20761;-56
2023/09/13 11:53:42;;;;;;;13.02;1.52;;;23.50;61.00;;;;;;5034749;28;20324;-58
2023/09/13 12:02:49;;;;;;;4.90;1.30;;;23.50;60.90;;;;;;4993677;28;20205;-58
2023/09/13 12:05:18;;;;;;;3.15;1.60;;;23.60;60.90;;;;;;4982699;28;20232;-57
2023/09/13 12:07:48;;;;;;;3.97;1.30;;;23.60;60.80;;;;;;5042235;28;20202;-59
2023/09/13 12:44:27;;;;;;;3.00;1.13;;;23.60;60.50;;;;;;4980370;28;20186;-58
2023/09/13 12:47:30;;;;;;;4.20;1.00;;;23.60;60.60;;;;;;4975667;28;20201;-60
2023/09/13 12:49:59;;;;;;;3.10;1.20;;;23.50;60.80;;;;;;4974916;28;20709;-61
2023/09/13 12:52:34;;;;;;;5.47;1.45;;;23.50;60.60;;;;;;4984097;28;20267;-57
2023/09/13 12:55:05;;;;;;;2.88;1.30;;;23.50;60.50;;;;;;4979405;28;20225;-57
2023/09/13 12:57:33;;;;;;;7.68;1.20;;;23.60;60.70;;;;;;4976541;28;20306;-59
2023/09/13 13:00:14;;;;;;;5.55;1.33;;;23.60;60.60;;;;;;4974843;28;20297;-54
2023/09/13 13:03:03;;;;;;;3.17;1.50;;;23.50;60.60;;;;;;4982641;28;20202;-58
2023/09/13 13:12:05;;;;;;;9.10;1.50;;;23.50;60.50;;;;;;4950180;28;20647;-63
2023/09/13 13:14:33;;;;;;;4.63;1.10;;;23.50;60.50;;;;;;5043824;28;20215;-58
2023/09/13 13:20:30;;;;;;;3.63;1.00;;;23.50;60.50;;;;;;4984852;28;20248;-58
2023/09/13 13:23:00;;;;;;;6.60;1.98;;;23.50;60.50;;;;;;5046797;28;20264;-58
2023/09/13 13:25:35;;;;;;;7.78;1.67;;;23.50;60.50;;;;;;5063285;28;20206;-59
2023/09/13 13:28:07;;;;;;;3.30;1.50;;;23.50;60.50;;;;;;5065625;28;20214;-59
2023/09/13 13:45:48;;;;;;;4.65;1.20;;;23.60;60.50;;;;;;4955275;28;20227;-60
2023/09/13 13:48:17;;;;;;;4.63;1.30;;;23.50;60.50;;;;;;4964202;28;20218;-63
2023/09/13 13:51:20;;;;;;;6.43;1.30;;;23.50;60.50;;;;;;4965686;28;20234;-58
2023/09/13 13:53:50;;;;;;;5.32;1.30;;;23.40;60.50;;;;;;4963075;28;20226;-57
2023/09/13 14:12:08;;;;;;;6.35;1.40;;;23.60;61.30;;;;;;4905614;29;20299;-56
2023/09/13 14:14:35;;;;;;;6.30;1.40;;;23.60;61.40;;;;;;4963710;28;20244;-56
2023/09/13 14:20:25;;;;;;;6.20;1.27;;;23.60;61.70;;;;;;4920435;29;20208;-60
2023/09/13 14:22:55;;;;;;;6.97;1.40;;;23.60;61.80;;;;;;4922698;29;20235;-62
2023/09/13 14:25:49;;;;;;;4.85;1.20;;;23.70;61.80;;;;;;4918637;29;20208;-56
2023/09/13 14:28:19;;;;;;;2.42;1.20;;;23.60;61.80;;;;;;4866753;29;20207;-58
2023/09/13 14:30:47;;;;;;;6.05;1.38;;;23.60;61.70;;;;;;4872082;29;20205;-63
2023/09/13 14:33:17;;;;;;;5.65;1.77;;;23.70;61.70;;;;;;4871092;29;20234;-60
2023/09/13 14:35:45;;;;;;;3.20;1.33;;;23.70;61.70;;;;;;4877391;29;20765;-61
2023/09/13 14:38:21;;;;;;;3.90;1.42;;;23.70;61.80;;;;;;4932459;29;20263;-59
2023/09/13 14:40:55;;;;;;;2.90;1.30;;;23.80;62.10;;;;;;4934410;29;20233;-61
2023/09/13 14:46:29;;;;;;;7.32;1.73;;;23.80;62.10;;;;;;4932939;28;20406;-58
2023/09/13 14:48:57;;;;;;;3.67;1.40;;;23.90;62.50;;;;;;4927361;29;20211;-62
2023/09/13 14:51:31;;;;;;;4.75;1.38;;;24.00;63.10;;;;;;4936147;29;20306;-60
2023/09/13 14:56:41;;;;;;;5.72;1.73;;;24.00;62.10;;;;;;4955044;28;20299;-59
2023/09/13 14:59:38;;;;;;;6.68;1.67;;;24.00;62.00;;;;;;4967327;28;20218;-62
2023/09/13 15:21:12;;;;;;;4.63;1.45;;;24.10;61.80;;;;;;4921915;29;20347;-58
2023/09/13 15:23:53;;;;;;;;;;;;;;;;;;;;;
2023/09/13 15:26:46;;;;;;;5.05;1.88;;;24.00;61.70;;;;;;4947066;28;20758;-57
2023/09/13 15:32:02;;;;;;;2.75;1.40;;;24.00;61.70;;;;;;4922068;29;20247;-57
2023/09/13 15:41:23;;;;;;;;;;;;;;;;;;;;;
2023/09/13 15:43:51;;;;;;;3.90;1.50;;;24.00;61.70;;;;;;4856805;29;20230;-61
2023/09/13 15:52:24;;;;;;;5.13;1.70;;;24.00;61.60;;;;;;4879010;29;21365;-57
2023/09/13 15:54:54;;;;;;;5.25;1.58;;;24.00;61.60;;;;;;4889063;29;20312;-61
2023/09/13 16:06:45;;;;;;;3.58;1.50;;;24.00;61.50;;;;;;4942264;28;20213;-64
2023/09/13 16:09:13;;;;;;;3.58;1.45;;;24.10;61.10;;;;;;5001245;28;20213;-63
2023/09/13 16:11:40;;;;;;;5.47;1.50;;;24.00;61.00;;;;;;5012448;28;20768;-63
2023/09/13 16:14:12;;;;;;;6.22;1.63;;;24.00;61.00;;;;;;5060001;28;20226;-63
2023/09/13 16:16:39;;;;;;;6.45;1.65;;;23.90;60.90;;;;;;5072581;28;20215;-64
2023/09/13 16:19:07;;;;;;;8.50;1.33;;;23.90;60.90;;;;;;5072755;28;20218;-63
2023/09/13 16:21:34;;;;;;;4.72;1.42;;;23.90;60.80;;;;;;5072760;28;20282;-62
2023/09/13 16:24:03;;;;;;;2.60;1.40;;;23.90;60.90;;;;;;5072448;28;20237;-63
2023/09/13 16:26:36;;;;;;;4.22;1.27;;;23.80;60.80;;;;;;5072897;28;20208;-63
2023/09/13 16:29:33;;;;;;;3.70;1.48;;;23.80;60.80;;;;;;5072792;28;20188;-63
2023/09/13 16:32:00;;;;;;;1.60;0.95;;;23.70;60.70;;;;;;5072593;28;20210;-63
2023/09/13 16:37:36;;;;;;;2.65;1.30;;;23.60;60.60;;;;;;5041613;28;20612;-63
2023/09/13 16:40:04;;;;;;;3.13;1.58;;;23.60;60.70;;;;;;5072545;28;20190;-63
2023/09/13 16:42:31;;;;;;;5.40;1.25;;;23.60;60.70;;;;;;5072079;28;20223;-63
2023/09/13 16:45:00;;;;;;;5.10;1.35;;;23.60;60.60;;;;;;5072592;28;20213;-62